createdAt,value
2019-05-15T00:02:18.881Z,5.50
2019-05-15T00:04:49.159Z,5.60
2019-05-15T00:07:20.225Z,5.50
2019-05-15T00:09:50.275Z,5.50
2019-05-15T00:12:19.989Z,5.50
2019-05-15T00:14:50.650Z,5.50
2019-05-15T00:17:20.386Z,5.50
2019-05-15T00:19:50.098Z,5.50
2019-05-15T00:22:19.806Z,5.40
2019-05-15T00:24:49.590Z,5.40
2019-05-15T00:27:20.255Z,5.40
2019-05-15T00:29:51.204Z,5.40
2019-05-15T00:32:20.905Z,5.30
2019-05-15T00:34:50.594Z,5.30
2019-05-15T00:37:20.315Z,5.30
2019-05-15T00:39:51.102Z,5.30
2019-05-15T00:42:21.326Z,5.30
2019-05-15T00:44:51.087Z,5.20
2019-05-15T00:47:20.893Z,5.30
2019-05-15T00:49:50.604Z,5.20
2019-05-15T00:52:21.453Z,5.20
2019-05-15T00:54:51.152Z,5.30
2019-05-15T00:57:20.956Z,5.20
2019-05-15T00:59:50.900Z,5.20
2019-05-15T01:02:20.590Z,5.20
2019-05-15T01:04:50.359Z,5.10
2019-05-15T01:07:20.190Z,5.10
2019-05-15T01:09:49.909Z,5.10
2019-05-15T01:12:19.588Z,5.00
2019-05-15T01:14:52.049Z,5.00
2019-05-15T01:17:21.760Z,5.00
2019-05-15T01:19:51.480Z,4.90
2019-05-15T01:22:22.342Z,4.90
2019-05-15T01:24:52.155Z,4.90
2019-05-15T01:27:21.881Z,4.90
2019-05-15T01:29:51.652Z,4.90
2019-05-15T01:32:21.416Z,4.90
2019-05-15T01:34:51.108Z,4.90
2019-05-15T01:37:20.872Z,4.80
2019-05-15T01:39:50.623Z,4.90
2019-05-15T01:42:20.328Z,4.80
2019-05-15T01:44:50.004Z,4.80
2019-05-15T01:47:19.686Z,4.80
2019-05-15T01:49:49.376Z,4.80
2019-05-15T01:52:19.070Z,4.80
2019-05-15T01:54:49.029Z,4.70
2019-05-15T01:57:19.025Z,4.70
2019-05-15T01:59:57.101Z,4.60
2019-05-15T02:02:20.405Z,4.60
2019-05-15T02:04:50.148Z,4.60
2019-05-15T02:07:19.846Z,4.50
2019-05-15T02:09:49.545Z,4.50
2019-05-15T02:12:19.292Z,4.60
2019-05-15T02:14:49.011Z,4.70
2019-05-15T02:17:21.770Z,4.70
2019-05-15T02:19:51.482Z,4.70
2019-05-15T02:22:21.183Z,4.70
2019-05-15T02:24:50.873Z,4.60
2019-05-15T02:27:20.535Z,4.60
2019-05-15T02:29:53.031Z,4.70
2019-05-15T02:32:22.747Z,4.70
2019-05-15T02:34:52.803Z,4.60
2019-05-15T02:37:22.593Z,4.50
2019-05-15T02:39:53.440Z,4.50
2019-05-15T02:42:23.107Z,4.40
2019-05-15T02:44:52.875Z,4.40
2019-05-15T02:47:22.620Z,4.40
2019-05-15T02:49:52.453Z,4.30
2019-05-15T02:52:22.143Z,4.30
2019-05-15T02:54:51.900Z,4.40
2019-05-15T02:57:21.824Z,4.40
2019-05-15T02:59:51.562Z,4.40
2019-05-15T03:02:21.341Z,4.50
2019-05-15T03:04:51.204Z,4.40
2019-05-15T03:07:21.195Z,4.40
2019-05-15T03:09:50.988Z,4.30
2019-05-15T03:12:20.723Z,4.30
2019-05-15T03:14:50.633Z,4.40
2019-05-15T03:17:20.423Z,4.30
2019-05-15T03:19:50.121Z,4.30
2019-05-15T03:22:19.968Z,4.30
2019-05-15T03:24:50.429Z,4.40
2019-05-15T03:27:20.438Z,4.40
2019-05-15T03:29:50.204Z,4.50
2019-05-15T03:32:32.176Z,4.50
2019-05-15T03:34:56.235Z,4.50
2019-05-15T03:37:23.137Z,4.40
2019-05-15T03:39:53.145Z,4.40
2019-05-15T03:42:23.044Z,4.50
2019-05-15T03:44:52.729Z,4.50
2019-05-15T03:47:22.596Z,4.50
2019-05-15T03:49:52.443Z,4.50
2019-05-15T03:52:22.248Z,4.40
2019-05-15T03:54:51.936Z,4.50
2019-05-15T03:57:23.186Z,4.50
2019-05-15T03:59:53.396Z,4.60
2019-05-15T04:02:23.194Z,4.60
2019-05-15T04:04:56.991Z,4.70
2019-05-15T04:07:24.719Z,4.70
2019-05-15T04:09:54.482Z,4.80
2019-05-15T04:12:24.262Z,4.80
2019-05-15T04:14:54.004Z,4.90
2019-05-15T04:17:29.226Z,5.00
2019-05-15T04:19:58.907Z,5.10
2019-05-15T04:22:29.293Z,5.20
2019-05-15T04:25:01.405Z,5.20
2019-05-15T04:27:31.713Z,5.30
2019-05-15T04:30:01.515Z,5.40
2019-05-15T04:32:31.260Z,5.50
2019-05-15T04:35:00.938Z,5.50
2019-05-15T04:37:30.749Z,5.50
2019-05-15T04:40:00.616Z,5.50
2019-05-15T04:42:30.443Z,5.40
2019-05-15T04:45:00.139Z,5.50
2019-05-15T04:47:30.400Z,5.50
2019-05-15T04:50:00.423Z,5.50
2019-05-15T04:52:30.759Z,5.70
2019-05-15T04:55:00.875Z,5.80
2019-05-15T04:57:34.040Z,6.00
2019-05-15T05:00:02.347Z,6.10
2019-05-15T05:02:32.802Z,6.20
2019-05-15T05:05:02.807Z,6.30
2019-05-15T05:07:34.295Z,6.50
2019-05-15T05:10:04.486Z,6.50
2019-05-15T05:12:34.395Z,6.60
2019-05-15T05:15:04.272Z,6.80
2019-05-15T05:17:34.049Z,6.90
2019-05-15T05:20:04.010Z,6.90
2019-05-15T05:22:34.326Z,7.10
2019-05-15T05:25:04.346Z,7.10
2019-05-15T05:27:34.257Z,7.30
2019-05-15T05:30:04.386Z,7.40
2019-05-15T05:32:35.261Z,7.50
2019-05-15T05:35:07.858Z,7.50
2019-05-15T05:37:38.891Z,7.50
2019-05-15T05:40:08.879Z,7.50
2019-05-15T05:42:39.178Z,7.50
2019-05-15T05:45:09.658Z,7.70
2019-05-15T05:47:40.390Z,7.90
2019-05-15T05:50:10.455Z,8.10
2019-05-15T05:52:40.221Z,8.10
2019-05-15T05:55:10.050Z,8.20
2019-05-15T05:57:39.748Z,8.40
2019-05-15T06:00:09.880Z,8.40
2019-05-15T06:02:46.997Z,8.40
2019-05-15T06:05:11.236Z,8.30
2019-05-15T06:07:42.036Z,8.20
2019-05-15T06:10:11.970Z,8.50
2019-05-15T06:12:42.740Z,8.40
2019-05-15T06:15:12.672Z,8.50
2019-05-15T06:17:42.420Z,8.80
2019-05-15T06:20:12.254Z,9.10
2019-05-15T06:22:43.822Z,9.30
2019-05-15T06:25:13.925Z,9.30
2019-05-15T06:27:43.798Z,9.60
2019-05-15T06:30:19.965Z,9.80
2019-05-15T06:33:02.014Z,10.10
2019-05-15T06:35:20.736Z,10.40
2019-05-15T06:37:50.688Z,10.80
2019-05-15T06:40:20.936Z,11.30
2019-05-15T06:42:50.667Z,11.70
2019-05-15T06:45:21.799Z,12.20
2019-05-15T06:47:51.499Z,12.60
2019-05-15T06:50:38.476Z,12.60
2019-05-15T06:53:10.761Z,12.80
2019-05-15T06:55:40.809Z,12.70
2019-05-15T06:58:10.548Z,12.70
2019-05-15T07:00:40.302Z,12.60
2019-05-15T07:03:21.474Z,12.40
2019-05-15T07:05:41.933Z,12.30
2019-05-15T07:08:11.855Z,12.00
2019-05-15T07:10:41.604Z,11.50
2019-05-15T07:13:11.283Z,11.50
2019-05-15T07:15:40.988Z,11.60
2019-05-15T07:18:10.754Z,11.80
2019-05-15T07:20:40.588Z,11.90
2019-05-15T07:23:10.359Z,12.00
2019-05-15T07:25:40.100Z,12.20
2019-05-15T07:28:09.799Z,12.40
2019-05-15T07:30:41.104Z,12.60
2019-05-15T07:33:11.100Z,12.90
2019-05-15T07:35:40.827Z,13.10
2019-05-15T07:38:10.646Z,12.70
2019-05-15T07:40:40.406Z,12.80
2019-05-15T07:43:10.099Z,12.80
2019-05-15T07:45:43.606Z,13.10
2019-05-15T07:48:11.315Z,13.10
2019-05-15T07:50:41.057Z,13.30
2019-05-15T07:53:10.720Z,13.40
2019-05-15T07:55:40.427Z,13.30
2019-05-15T07:58:10.143Z,12.90
2019-05-15T08:00:40.001Z,13.00
2019-05-15T08:03:10.450Z,13.20
2019-05-15T08:05:55.053Z,13.40
2019-05-15T08:08:11.840Z,13.40
2019-05-15T08:10:41.629Z,13.50
2019-05-15T08:13:12.049Z,13.50
2019-05-15T08:15:41.716Z,13.50
2019-05-15T08:18:12.895Z,13.70
2019-05-15T08:20:43.100Z,14.10
2019-05-15T08:23:12.893Z,14.20
2019-05-15T08:25:42.563Z,14.20
2019-05-15T08:28:12.257Z,14.50
2019-05-15T08:30:42.007Z,14.50
2019-05-15T08:33:11.867Z,14.70
2019-05-15T08:35:44.637Z,14.50
2019-05-15T08:38:14.353Z,14.70
2019-05-15T08:40:44.259Z,14.70
2019-05-15T08:43:18.142Z,14.90
2019-05-15T08:45:49.613Z,14.80
2019-05-15T08:48:19.122Z,14.50
2019-05-15T08:50:49.161Z,14.70
2019-05-15T08:53:19.666Z,15.10
2019-05-15T08:55:49.709Z,15.30
2019-05-15T08:58:20.613Z,15.10
2019-05-15T09:00:52.278Z,15.10
2019-05-15T09:03:22.965Z,15.20
2019-05-15T09:05:52.758Z,15.00
2019-05-15T09:08:22.504Z,14.60
2019-05-15T09:10:52.211Z,14.50
2019-05-15T09:13:21.899Z,14.80
2019-05-15T09:15:51.707Z,14.20
2019-05-15T09:18:21.430Z,14.10
2019-05-15T09:20:51.116Z,14.20
2019-05-15T09:23:20.831Z,14.30
2019-05-15T09:25:50.663Z,14.80
2019-05-15T09:28:21.374Z,15.20
2019-05-15T09:30:51.205Z,15.30
2019-05-15T09:33:20.918Z,15.00
2019-05-15T09:35:50.787Z,14.90
2019-05-15T09:38:20.511Z,14.60
2019-05-15T09:40:51.197Z,14.90
2019-05-15T09:43:22.131Z,14.90
2019-05-15T09:45:51.807Z,15.00
2019-05-15T09:48:21.464Z,15.40
2019-05-15T09:50:51.293Z,15.50
2019-05-15T09:53:21.010Z,15.50
2019-05-15T09:55:50.954Z,15.60
2019-05-15T09:58:21.099Z,15.60
2019-05-15T10:00:53.563Z,15.50
2019-05-15T10:03:23.437Z,15.10
2019-05-15T10:05:53.109Z,14.90
2019-05-15T10:08:22.866Z,15.00
2019-05-15T10:10:52.710Z,15.10
2019-05-15T10:13:22.582Z,15.20
2019-05-15T10:15:52.274Z,15.00
2019-05-15T10:18:21.997Z,15.20
2019-05-15T10:20:51.918Z,15.10
2019-05-15T10:23:21.748Z,15.00
2019-05-15T10:25:51.539Z,15.00
2019-05-15T10:28:21.250Z,14.80
2019-05-15T10:30:51.090Z,15.20
2019-05-15T10:33:20.844Z,14.90
2019-05-15T10:35:51.537Z,15.20
2019-05-15T10:38:21.341Z,15.60
2019-05-15T10:41:04.022Z,15.70
2019-05-15T10:43:22.591Z,15.60
2019-05-15T10:45:54.661Z,15.70
2019-05-15T10:48:23.656Z,15.40
2019-05-15T10:50:53.650Z,14.90
2019-05-15T10:53:24.823Z,14.90
2019-05-15T10:55:54.670Z,14.70
2019-05-15T10:58:24.357Z,14.40
2019-05-15T11:00:55.298Z,14.40
2019-05-15T11:03:25.056Z,14.60
2019-05-15T11:05:54.828Z,14.70
2019-05-15T11:08:24.548Z,14.80
2019-05-15T11:10:54.436Z,14.90
2019-05-15T11:13:24.134Z,14.90
2019-05-15T11:15:53.922Z,14.80
2019-05-15T11:18:23.872Z,14.90
2019-05-15T11:20:53.720Z,14.70
2019-05-15T11:23:23.428Z,15.00
2019-05-15T11:25:53.118Z,15.20
2019-05-15T11:28:22.885Z,15.30
2019-05-15T11:30:52.701Z,15.50
2019-05-15T11:33:22.424Z,15.50
2019-05-15T11:36:00.387Z,15.70
2019-05-15T11:38:23.668Z,15.90
2019-05-15T11:40:53.369Z,16.20
2019-05-15T11:43:23.346Z,16.40
2019-05-15T11:45:53.150Z,16.10
2019-05-15T11:48:22.920Z,16.30
2019-05-15T11:50:52.661Z,16.50
2019-05-15T11:53:22.432Z,16.60
2019-05-15T11:55:52.069Z,16.40
2019-05-15T11:58:21.800Z,16.50
2019-05-15T12:00:51.550Z,16.50
2019-05-15T12:03:24.650Z,16.60
2019-05-15T12:05:52.639Z,16.70
2019-05-15T12:08:23.344Z,16.80
2019-05-15T12:10:53.053Z,16.70
2019-05-15T12:13:22.720Z,16.60
2019-05-15T12:15:52.366Z,16.30
2019-05-15T12:18:22.027Z,16.10
2019-05-15T12:20:51.670Z,16.20
2019-05-15T12:23:21.353Z,16.30
2019-05-15T12:25:50.984Z,16.80
2019-05-15T12:28:20.714Z,16.70
2019-05-15T12:30:50.483Z,16.60
2019-05-15T12:33:20.185Z,16.90
2019-05-15T12:35:51.050Z,17.00
2019-05-15T12:38:21.078Z,17.10
2019-05-15T13:01:16.569Z,16.10
2019-05-15T13:03:33.824Z,15.30
2019-05-15T13:06:03.505Z,15.20
2019-05-15T13:08:33.220Z,15.10
2019-05-15T13:11:09.497Z,15.30
2019-05-15T13:13:37.671Z,15.10
2019-05-15T13:16:07.292Z,15.00
2019-05-15T13:18:38.797Z,15.20
2019-05-15T13:21:08.974Z,15.00
2019-05-15T13:23:38.837Z,14.80
2019-05-15T13:26:23.025Z,14.50
2019-05-15T13:28:40.155Z,14.50
2019-05-15T13:31:09.972Z,14.20
2019-05-15T13:33:39.677Z,14.10
2019-05-15T13:36:09.396Z,13.80
2019-05-15T13:38:40.114Z,13.70
2019-05-15T13:41:09.859Z,13.70
2019-05-15T13:43:39.542Z,13.80
2019-05-15T13:46:09.240Z,14.10
2019-05-15T13:48:39.020Z,14.20
2019-05-15T13:51:08.750Z,14.20
2019-05-15T13:53:38.660Z,14.20
2019-05-15T13:56:08.590Z,14.30
2019-05-15T13:58:38.955Z,14.50
2019-05-15T14:01:09.539Z,14.60
2019-05-15T14:03:39.357Z,14.70
2019-05-15T14:06:09.473Z,14.70
2019-05-15T14:08:39.838Z,14.70
2019-05-15T14:11:09.734Z,14.70
2019-05-15T14:13:39.539Z,14.70
2019-05-15T14:16:09.807Z,14.60
2019-05-15T14:18:39.781Z,14.70
2019-05-15T14:21:09.735Z,14.70
2019-05-15T14:23:39.489Z,14.70
2019-05-15T14:26:17.972Z,14.70
2019-05-15T14:28:40.795Z,14.80
2019-05-15T14:31:10.768Z,14.80
2019-05-15T14:33:40.537Z,14.90
2019-05-15T14:36:10.242Z,15.10
2019-05-15T14:38:40.297Z,15.20
2019-05-15T14:41:10.012Z,15.30
2019-05-15T14:43:42.638Z,15.20
2019-05-15T14:46:12.789Z,15.00
2019-05-15T14:48:42.638Z,15.00
2019-05-15T14:51:12.509Z,14.80
2019-05-15T14:53:43.477Z,14.80
2019-05-15T14:56:13.278Z,14.90
2019-05-15T14:58:48.014Z,14.90
2019-05-15T15:01:18.445Z,15.00
2019-05-15T15:03:49.427Z,15.10
2019-05-15T15:06:19.398Z,15.40
2019-05-15T15:08:49.190Z,15.40
2019-05-15T15:11:19.099Z,15.60
2019-05-15T15:13:48.819Z,15.60
2019-05-15T15:16:19.402Z,15.60
2019-05-15T15:18:49.490Z,15.40
2019-05-15T15:21:22.152Z,15.10
2019-05-15T15:23:50.681Z,14.90
2019-05-15T15:26:20.473Z,14.50
2019-05-15T15:28:50.273Z,14.70
2019-05-15T15:31:20.099Z,14.80
2019-05-15T15:33:49.839Z,14.80
2019-05-15T15:36:19.649Z,14.80
2019-05-15T15:38:49.698Z,14.90
2019-05-15T15:41:19.529Z,14.70
2019-05-15T15:43:52.211Z,14.60
2019-05-15T15:46:20.815Z,14.50
2019-05-15T15:49:08.929Z,14.60
2019-05-15T15:51:44.205Z,14.60
2019-05-15T15:54:14.053Z,14.30
2019-05-15T15:56:43.873Z,14.10
2019-05-15T15:59:13.570Z,13.90
2019-05-15T16:01:43.240Z,13.90
2019-05-15T16:04:12.940Z,13.70
2019-05-15T16:06:42.673Z,13.80
2019-05-15T16:09:12.443Z,14.00
2019-05-15T16:11:42.286Z,14.10
2019-05-15T16:14:12.061Z,14.00
2019-05-15T16:16:41.827Z,14.00
2019-05-15T16:19:11.508Z,14.00
2019-05-15T16:21:41.241Z,14.00
2019-05-15T16:24:17.358Z,14.00
2019-05-15T16:26:42.385Z,14.00
2019-05-15T16:29:12.029Z,13.80
2019-05-15T16:31:42.020Z,13.60
2019-05-15T16:34:11.794Z,13.40
2019-05-15T16:36:41.525Z,13.20
2019-05-15T16:39:11.949Z,13.10
2019-05-15T16:41:41.902Z,12.90
2019-05-15T16:44:11.582Z,12.80
2019-05-15T16:46:41.555Z,12.80
2019-05-15T16:49:11.258Z,12.80
2019-05-15T16:51:41.044Z,12.70
2019-05-15T16:54:10.769Z,12.70
2019-05-15T16:56:40.553Z,12.70
2019-05-15T16:59:10.302Z,12.70
2019-05-15T17:01:40.234Z,12.60
2019-05-15T17:04:10.036Z,12.50
2019-05-15T17:06:40.376Z,12.50
2019-05-15T17:09:20.772Z,12.50
2019-05-15T17:11:41.811Z,12.60
2019-05-15T17:14:11.637Z,12.70
2019-05-15T17:16:41.738Z,12.60
2019-05-15T17:19:11.532Z,12.30
2019-05-15T17:21:41.304Z,12.20
2019-05-15T17:24:11.087Z,12.20
2019-05-15T17:26:40.965Z,12.10
2019-05-15T17:29:10.684Z,12.00
2019-05-15T17:31:40.998Z,11.90
2019-05-15T17:34:11.745Z,11.90
2019-05-15T17:36:41.735Z,11.80
2019-05-15T17:39:11.493Z,11.80
2019-05-15T17:41:41.664Z,11.60
2019-05-15T17:44:11.432Z,11.50
2019-05-15T17:46:41.563Z,11.30
2019-05-15T17:49:15.368Z,11.10
2019-05-15T17:51:42.752Z,10.90
2019-05-15T17:54:13.556Z,10.60
2019-05-15T17:56:43.399Z,10.50
2019-05-15T17:59:13.408Z,10.50
2019-05-15T18:01:43.606Z,10.60
2019-05-15T18:04:13.386Z,10.60
2019-05-15T18:06:43.355Z,10.60
2019-05-15T18:09:13.185Z,10.80
2019-05-15T18:11:44.650Z,10.80
2019-05-15T18:14:15.539Z,10.90
2019-05-15T18:16:48.088Z,11.00
2019-05-15T18:19:18.807Z,11.00
2019-05-15T18:21:49.792Z,11.10
2019-05-15T18:24:21.331Z,11.10
2019-05-15T18:26:51.070Z,11.00
2019-05-15T18:29:20.802Z,11.00
2019-05-15T18:31:51.558Z,10.90
2019-05-15T18:34:21.406Z,10.90
2019-05-15T18:36:51.153Z,10.90
2019-05-15T18:39:20.891Z,10.90
2019-05-15T18:41:53.797Z,10.80
2019-05-15T18:44:23.499Z,10.80
2019-05-15T18:46:53.237Z,10.80
2019-05-15T18:49:23.007Z,10.70
2019-05-15T18:51:52.685Z,10.60
2019-05-15T18:54:22.428Z,10.50
2019-05-15T18:56:52.281Z,10.50
2019-05-15T18:59:21.990Z,10.50
2019-05-15T19:01:51.842Z,10.60
2019-05-15T19:04:21.870Z,10.70
2019-05-15T19:06:51.793Z,10.80
2019-05-15T19:09:21.590Z,10.70
2019-05-15T19:11:51.420Z,10.60
2019-05-15T19:14:21.175Z,10.60
2019-05-15T19:16:51.188Z,10.60
2019-05-15T19:19:21.075Z,10.50
2019-05-15T19:21:50.828Z,10.50
2019-05-15T19:24:20.573Z,10.40
2019-05-15T19:26:50.576Z,10.40
2019-05-15T19:29:20.521Z,10.40
2019-05-15T19:31:50.597Z,10.50
2019-05-15T19:34:20.455Z,10.50
2019-05-15T19:36:50.277Z,10.60
2019-05-15T19:39:20.233Z,10.60
2019-05-15T19:41:50.119Z,10.60
2019-05-15T19:44:21.785Z,10.60
2019-05-15T19:46:51.531Z,10.50
2019-05-15T19:49:21.316Z,10.50
2019-05-15T19:51:50.993Z,10.50
2019-05-15T19:54:20.751Z,10.50
2019-05-15T19:56:50.500Z,10.60
2019-05-15T19:59:22.444Z,10.50
2019-05-15T20:01:51.804Z,10.60
2019-05-15T20:04:24.203Z,10.60
2019-05-15T20:06:54.103Z,10.60
2019-05-15T20:09:24.047Z,10.60
2019-05-15T20:11:53.912Z,10.60
2019-05-15T20:14:24.060Z,10.60
2019-05-15T20:16:54.001Z,10.50
2019-05-15T20:19:24.098Z,10.40
2019-05-15T20:21:53.911Z,10.30
2019-05-15T20:24:23.743Z,10.40
2019-05-15T20:26:53.561Z,10.50
2019-05-15T20:29:23.580Z,10.50
2019-05-15T20:31:55.837Z,10.50
2019-05-15T20:34:24.758Z,10.60
2019-05-15T20:36:58.786Z,10.50
2019-05-15T20:39:28.722Z,10.50
2019-05-15T20:41:58.639Z,10.40
2019-05-15T20:44:29.351Z,10.50
2019-05-15T20:46:59.339Z,10.50
2019-05-15T20:49:29.635Z,10.50
2019-05-15T20:51:59.607Z,10.50
2019-05-15T20:54:29.308Z,10.40
2019-05-15T20:56:59.007Z,10.50
2019-05-15T20:59:28.917Z,10.50
2019-05-15T21:01:59.315Z,10.50
2019-05-15T21:04:29.491Z,10.50
2019-05-15T21:07:00.301Z,10.50
2019-05-15T21:09:30.737Z,10.50
2019-05-15T21:12:00.599Z,10.50
2019-05-15T21:14:30.349Z,10.40
2019-05-15T21:17:00.479Z,10.40
2019-05-15T21:19:30.273Z,10.40
2019-05-15T21:22:00.214Z,10.50
2019-05-15T21:24:32.473Z,10.40
2019-05-15T21:27:02.249Z,10.30
2019-05-15T21:29:32.087Z,10.40
2019-05-15T21:32:01.757Z,10.50
2019-05-15T21:34:37.010Z,10.40
2019-05-15T21:37:02.907Z,10.40
2019-05-15T21:39:32.599Z,10.50
2019-05-15T21:42:02.291Z,10.50
2019-05-15T21:44:31.974Z,10.50
2019-05-15T21:47:01.755Z,10.40
2019-05-15T21:49:31.419Z,10.50
2019-05-15T21:52:01.149Z,10.30
2019-05-15T21:54:30.791Z,10.30
2019-05-15T21:57:18.642Z,10.40
2019-05-15T21:59:31.841Z,10.40
2019-05-15T22:02:01.907Z,10.40
2019-05-15T22:04:31.582Z,10.30
2019-05-15T22:07:19.326Z,10.30
2019-05-15T22:10:22.561Z,10.40
2019-05-15T22:12:52.593Z,10.30
2019-05-15T22:15:22.499Z,10.30
2019-05-15T22:17:52.467Z,10.30
2019-05-15T22:20:22.317Z,10.30
2019-05-15T22:22:53.719Z,10.20
2019-05-15T22:25:23.645Z,10.30
2019-05-15T22:27:53.357Z,10.30
2019-05-15T22:30:23.575Z,10.30
2019-05-15T22:32:53.424Z,10.30
2019-05-15T22:35:23.299Z,10.20
2019-05-15T22:37:52.989Z,10.20
2019-05-15T22:40:22.968Z,10.20
2019-05-15T22:42:52.746Z,10.10
2019-05-15T22:45:22.683Z,10.10
2019-05-15T22:47:52.387Z,10.10
2019-05-15T22:50:22.335Z,10.00
2019-05-15T22:52:52.197Z,10.10
2019-05-15T22:55:21.894Z,10.10
2019-05-15T22:57:51.619Z,10.20
2019-05-15T23:00:21.555Z,10.00
2019-05-15T23:02:51.543Z,10.00
2019-05-15T23:05:28.385Z,9.90
2019-05-15T23:07:55.622Z,9.80
2019-05-15T23:10:25.283Z,9.70
2019-05-15T23:12:55.147Z,9.80
2019-05-15T23:15:24.835Z,9.80
2019-05-15T23:17:54.956Z,9.70
2019-05-15T23:20:24.771Z,9.70
2019-05-15T23:22:54.580Z,9.60
2019-05-15T23:25:24.315Z,9.60
2019-05-15T23:27:54.007Z,9.70
2019-05-15T23:30:23.724Z,9.60
2019-05-15T23:32:54.081Z,9.60
2019-05-15T23:35:34.624Z,9.60
2019-05-15T23:37:55.268Z,9.60
2019-05-15T23:40:25.025Z,9.60
2019-05-15T23:42:54.735Z,9.60
2019-05-15T23:45:24.432Z,9.60
2019-05-15T23:47:57.844Z,9.60
2019-05-15T23:50:28.834Z,9.60
2019-05-15T23:52:58.764Z,9.60
2019-05-15T23:55:28.757Z,9.50
2019-05-15T23:57:58.652Z,9.50
